createdAt,value
2022-11-14T00:01:12.781Z,-0.50
2022-11-14T00:03:39.789Z,-0.50
2022-11-14T00:06:08.037Z,-0.50
2022-11-14T00:08:35.969Z,-0.50
2022-11-14T00:11:02.897Z,-0.60
2022-11-14T00:13:29.620Z,-0.60
2022-11-14T00:15:56.710Z,-0.60
2022-11-14T00:18:23.893Z,-0.60
2022-11-14T00:20:52.729Z,-0.60
2022-11-14T00:23:21.214Z,-0.70
2022-11-14T00:25:48.407Z,-0.70
2022-11-14T00:28:15.838Z,-0.70
2022-11-14T00:30:48.133Z,-0.70
2022-11-14T00:33:20.113Z,-0.70
2022-11-14T00:35:55.745Z,-0.70
2022-11-14T00:38:23.660Z,-0.70
2022-11-14T00:40:50.562Z,-0.70
2022-11-14T00:43:17.558Z,-0.80
2022-11-14T00:45:45.730Z,-0.80
2022-11-14T00:48:12.892Z,-0.80
2022-11-14T00:50:40.104Z,-0.90
2022-11-14T00:53:07.355Z,-0.90
2022-11-14T00:55:34.291Z,-0.90
2022-11-14T00:58:01.098Z,-1.00
2022-11-14T01:00:27.916Z,-1.00
2022-11-14T01:02:56.830Z,-1.00
2022-11-14T01:05:24.962Z,-1.00
2022-11-14T01:07:51.762Z,-1.00
2022-11-14T01:10:18.992Z,-1.00
2022-11-14T01:12:45.735Z,-1.00
2022-11-14T01:15:12.581Z,-1.00
2022-11-14T01:17:39.591Z,-1.00
2022-11-14T01:20:06.915Z,-1.10
2022-11-14T01:22:33.884Z,-1.10
2022-11-14T01:25:00.639Z,-1.10
2022-11-14T01:27:31.884Z,-1.20
2022-11-14T01:29:58.751Z,-1.20
2022-11-14T01:32:27.364Z,-1.20
2022-11-14T01:34:54.783Z,-1.20
2022-11-14T01:37:22.295Z,-1.20
2022-11-14T01:39:51.486Z,-1.20
2022-11-14T01:42:20.094Z,-1.30
2022-11-14T01:44:52.562Z,-1.30
2022-11-14T01:47:28.860Z,-1.20
2022-11-14T01:50:00.761Z,-1.30
2022-11-14T01:52:40.720Z,-1.20
2022-11-14T01:55:10.559Z,-1.20
2022-11-14T01:57:45.977Z,-1.20
2022-11-14T02:00:13.618Z,-1.10
2022-11-14T02:02:41.447Z,-1.10
2022-11-14T02:05:12.936Z,-1.00
2022-11-14T02:07:41.564Z,-0.90
2022-11-14T02:10:17.067Z,-0.80
2022-11-14T02:12:45.287Z,-0.40
2022-11-14T02:15:12.900Z,0.10
2022-11-14T02:17:41.504Z,0.50
2022-11-14T02:20:11.574Z,0.90
2022-11-14T02:22:40.736Z,1.20
2022-11-14T02:25:10.274Z,1.60
2022-11-14T02:27:40.154Z,1.80
2022-11-14T02:30:16.642Z,2.10
2022-11-14T02:35:30.065Z,2.90
2022-11-14T02:37:56.802Z,3.40
2022-11-14T02:40:23.507Z,3.60
2022-11-14T02:42:50.252Z,3.70
2022-11-14T02:45:17.068Z,3.90
2022-11-14T02:47:43.795Z,4.10
2022-11-14T02:50:10.593Z,4.30
2022-11-14T02:52:37.427Z,4.40
2022-11-14T02:55:05.251Z,4.60
2022-11-14T02:57:31.978Z,4.70
2022-11-14T02:59:58.742Z,4.70
2022-11-14T03:02:25.951Z,4.60
2022-11-14T03:04:53.061Z,4.50
2022-11-14T03:07:19.852Z,4.40
2022-11-14T03:09:46.651Z,4.40
2022-11-14T03:12:17.950Z,4.40
2022-11-14T03:14:44.842Z,4.50
2022-11-14T03:17:12.174Z,4.70
2022-11-14T03:19:39.159Z,4.80
2022-11-14T03:22:06.118Z,4.90
2022-11-14T03:24:33.087Z,4.90
2022-11-14T03:26:59.835Z,4.80
2022-11-14T03:29:26.586Z,4.70
2022-11-14T03:31:53.392Z,4.50
2022-11-14T03:34:20.138Z,4.40
2022-11-14T03:36:46.987Z,4.30
2022-11-14T03:39:13.719Z,4.20
2022-11-14T03:41:40.434Z,4.20
2022-11-14T03:44:07.196Z,4.20
2022-11-14T03:46:33.955Z,4.20
2022-11-14T03:49:00.660Z,4.00
2022-11-14T03:51:27.415Z,3.90
2022-11-14T03:53:54.170Z,3.70
2022-11-14T03:56:20.939Z,3.60
2022-11-14T03:58:47.702Z,3.40
2022-11-14T04:01:14.524Z,3.30
2022-11-14T04:03:41.307Z,3.20
2022-11-14T04:06:08.072Z,3.10
2022-11-14T04:08:34.791Z,3.10
2022-11-14T04:11:01.508Z,3.10
2022-11-14T04:13:28.275Z,3.00
2022-11-14T04:15:56.987Z,3.00
2022-11-14T04:18:25.223Z,3.00
2022-11-14T04:20:52.879Z,3.20
2022-11-14T04:23:20.211Z,3.20
2022-11-14T04:25:47.260Z,3.30
2022-11-14T04:28:14.549Z,3.40
2022-11-14T04:30:41.622Z,3.40
2022-11-14T04:33:08.433Z,3.40
2022-11-14T04:35:35.249Z,3.30
2022-11-14T04:38:02.219Z,3.30
2022-11-14T04:40:29.039Z,3.30
2022-11-14T04:42:55.734Z,3.20
2022-11-14T04:45:22.545Z,3.20
2022-11-14T04:47:49.379Z,3.10
2022-11-14T04:50:16.189Z,3.00
2022-11-14T04:52:43.082Z,3.00
2022-11-14T04:55:10.010Z,2.90
2022-11-14T04:57:36.824Z,2.80
2022-11-14T05:00:05.577Z,2.70
2022-11-14T05:02:33.251Z,2.70
2022-11-14T05:04:59.962Z,2.60
2022-11-14T05:07:26.772Z,2.60
2022-11-14T05:09:53.535Z,2.50
2022-11-14T05:12:20.271Z,2.40
2022-11-14T05:14:47.098Z,2.30
2022-11-14T05:17:13.844Z,2.20
2022-11-14T05:19:40.552Z,2.20
2022-11-14T05:22:07.492Z,2.10
2022-11-14T05:24:34.253Z,2.00
2022-11-14T05:27:00.964Z,1.90
2022-11-14T05:29:27.750Z,1.90
2022-11-14T05:31:54.545Z,1.80
2022-11-14T05:34:21.256Z,1.70
2022-11-14T05:36:48.018Z,1.70
2022-11-14T05:39:15.102Z,1.60
2022-11-14T05:41:42.141Z,1.50
2022-11-14T05:44:08.938Z,1.50
2022-11-14T05:46:35.838Z,1.40
2022-11-14T05:49:02.657Z,1.40
2022-11-14T05:51:29.443Z,1.40
2022-11-14T05:53:56.235Z,1.40
2022-11-14T05:56:23.071Z,1.40
2022-11-14T05:58:49.771Z,1.40
2022-11-14T06:01:19.710Z,1.30
2022-11-14T06:03:48.515Z,1.30
2022-11-14T06:06:20.112Z,1.30
2022-11-14T06:08:48.067Z,1.20
2022-11-14T06:11:20.957Z,1.20
2022-11-14T06:13:48.346Z,1.10
2022-11-14T06:16:20.130Z,1.10
2022-11-14T06:18:47.930Z,1.00
2022-11-14T06:21:20.710Z,0.90
2022-11-14T06:23:48.152Z,0.90
2022-11-14T06:26:30.257Z,0.90
2022-11-14T06:28:58.240Z,0.90
2022-11-14T06:31:26.292Z,0.80
2022-11-14T06:33:53.067Z,0.80
2022-11-14T06:36:19.987Z,0.80
2022-11-14T06:38:46.711Z,0.70
2022-11-14T06:41:20.300Z,0.70
2022-11-14T06:43:50.982Z,0.70
2022-11-14T06:46:55.113Z,0.70
2022-11-14T06:49:21.933Z,0.60
2022-11-14T06:51:48.623Z,0.60
2022-11-14T06:54:15.393Z,0.50
2022-11-14T06:56:42.663Z,0.50
2022-11-14T06:59:09.630Z,0.50
2022-11-14T07:01:36.347Z,0.50
2022-11-14T07:04:03.227Z,0.50
2022-11-14T07:06:30.988Z,0.60
2022-11-14T07:08:58.160Z,0.60
2022-11-14T07:11:29.503Z,0.70
2022-11-14T07:13:59.494Z,0.60
2022-11-14T07:16:32.599Z,0.70
2022-11-14T07:19:00.126Z,0.80
2022-11-14T07:21:29.196Z,0.90
2022-11-14T07:23:56.968Z,1.00
2022-11-14T07:26:24.340Z,1.20
2022-11-14T07:28:54.458Z,1.30
2022-11-14T07:31:22.341Z,1.60
2022-11-14T07:33:49.521Z,1.70
2022-11-14T07:36:17.051Z,1.90
2022-11-14T07:38:43.904Z,2.00
2022-11-14T07:41:14.278Z,2.20
2022-11-14T07:43:41.991Z,2.40
2022-11-14T07:46:15.475Z,2.50
2022-11-14T07:48:42.764Z,2.80
2022-11-14T07:51:19.320Z,3.10
2022-11-14T07:53:46.413Z,3.30
2022-11-14T07:56:13.684Z,3.60
2022-11-14T07:58:41.809Z,3.80
2022-11-14T08:01:11.978Z,3.90
2022-11-14T08:03:45.059Z,4.20
2022-11-14T08:06:16.025Z,4.40
2022-11-14T08:08:42.980Z,4.50
2022-11-14T08:11:11.833Z,4.60
2022-11-14T08:13:38.683Z,4.70
2022-11-14T08:16:12.739Z,4.80
2022-11-14T08:18:40.843Z,4.90
2022-11-14T08:21:07.647Z,5.00
2022-11-14T08:23:34.570Z,5.00
2022-11-14T08:26:01.529Z,5.00
2022-11-14T08:28:28.641Z,5.00
2022-11-14T08:31:01.901Z,5.10
2022-11-14T08:33:29.566Z,5.10
2022-11-14T08:35:56.311Z,5.10
2022-11-14T08:38:23.042Z,5.10
2022-11-14T08:40:49.765Z,5.10
2022-11-14T08:43:16.552Z,5.00
2022-11-14T08:45:43.251Z,5.00
2022-11-14T08:48:10.046Z,5.00
2022-11-14T08:50:36.862Z,5.00
2022-11-14T08:53:03.608Z,5.00
2022-11-14T08:55:30.384Z,5.00
2022-11-14T08:57:57.124Z,5.00
2022-11-14T09:00:24.281Z,5.00
2022-11-14T09:02:51.031Z,5.00
2022-11-14T09:05:17.901Z,5.00
2022-11-14T09:07:44.640Z,5.00
2022-11-14T09:10:11.349Z,5.00
2022-11-14T09:12:38.318Z,5.00
2022-11-14T09:15:05.600Z,5.00
2022-11-14T09:17:32.295Z,5.00
2022-11-14T09:19:59.061Z,5.00
2022-11-14T09:22:25.937Z,5.10
2022-11-14T09:24:52.985Z,5.10
2022-11-14T09:27:19.715Z,5.20
2022-11-14T09:29:46.751Z,5.20
2022-11-14T09:32:13.549Z,5.20
2022-11-14T09:34:43.004Z,5.20
2022-11-14T09:37:09.963Z,5.20
2022-11-14T09:39:40.426Z,5.20
2022-11-14T09:42:42.870Z,5.30
2022-11-14T09:45:16.112Z,5.20
2022-11-14T09:48:12.336Z,5.30
2022-11-14T09:50:52.140Z,5.30
2022-11-14T09:53:46.805Z,5.40
2022-11-14T09:56:20.226Z,5.50
2022-11-14T09:58:47.085Z,5.50
2022-11-14T10:01:55.256Z,5.50
2022-11-14T10:04:40.082Z,5.50
2022-11-14T10:07:36.652Z,5.60
2022-11-14T10:10:51.224Z,5.60
2022-11-14T10:13:24.438Z,5.60
2022-11-14T10:16:34.248Z,5.70
2022-11-14T10:19:42.541Z,5.70
2022-11-14T10:22:40.708Z,5.80
2022-11-14T10:25:20.341Z,6.10
2022-11-14T10:28:23.556Z,6.10
2022-11-14T10:31:11.108Z,6.00
2022-11-14T10:34:09.175Z,6.10
2022-11-14T10:37:15.640Z,6.10
2022-11-14T10:39:54.208Z,6.20
2022-11-14T10:42:44.250Z,6.30
2022-11-14T10:45:28.398Z,6.30
2022-11-14T10:48:01.266Z,6.40
2022-11-14T10:51:03.151Z,6.50
2022-11-14T10:53:55.478Z,6.70
2022-11-14T10:56:22.778Z,6.90
2022-11-14T10:58:50.304Z,7.10
2022-11-14T11:01:43.301Z,7.20
2022-11-14T11:04:37.008Z,7.40
2022-11-14T11:07:09.893Z,7.60
2022-11-14T11:09:58.369Z,7.70
2022-11-14T11:12:36.880Z,7.70
2022-11-14T11:15:31.531Z,7.50
2022-11-14T11:18:27.722Z,7.30
2022-11-14T11:21:14.283Z,7.20
2022-11-14T11:23:56.677Z,7.00
2022-11-14T11:26:30.285Z,7.00
2022-11-14T11:29:12.117Z,6.90
2022-11-14T11:31:55.065Z,6.80
2022-11-14T11:34:32.354Z,6.80
2022-11-14T11:37:08.928Z,6.80
2022-11-14T11:39:43.190Z,6.80
2022-11-14T11:42:19.939Z,6.80
2022-11-14T11:44:55.583Z,6.80
2022-11-14T11:47:22.671Z,6.90
2022-11-14T11:49:54.114Z,6.90
2022-11-14T11:52:35.790Z,6.90
2022-11-14T11:55:08.877Z,6.80
2022-11-14T11:58:11.927Z,6.70
2022-11-14T12:00:38.986Z,6.60
2022-11-14T12:03:14.103Z,6.50
2022-11-14T12:06:09.808Z,6.60
2022-11-14T12:08:45.837Z,6.40
2022-11-14T12:11:22.622Z,6.40
2022-11-14T12:14:27.264Z,6.40
2022-11-14T12:17:50.470Z,6.40
2022-11-14T12:20:47.766Z,6.50
2022-11-14T12:23:30.936Z,6.50
2022-11-14T12:26:13.554Z,6.60
2022-11-14T12:28:59.298Z,6.70
2022-11-14T12:31:33.245Z,6.70
2022-11-14T12:34:12.882Z,6.80
2022-11-14T12:36:46.009Z,6.80
2022-11-14T12:39:27.118Z,7.00
2022-11-14T12:42:07.681Z,6.90
2022-11-14T12:44:39.963Z,6.90
2022-11-14T12:47:06.683Z,6.80
2022-11-14T12:49:38.310Z,6.70
2022-11-14T12:52:40.378Z,6.60
2022-11-14T12:55:25.391Z,6.60
2022-11-14T12:58:21.331Z,6.60
2022-11-14T13:00:51.167Z,6.50
2022-11-14T13:04:14.081Z,6.40
2022-11-14T13:07:05.869Z,6.40
2022-11-14T13:10:02.640Z,6.40
2022-11-14T13:12:52.165Z,6.30
2022-11-14T13:16:07.057Z,6.30
2022-11-14T13:18:52.669Z,6.30
2022-11-14T13:21:46.201Z,6.30
2022-11-14T13:24:18.677Z,6.30
2022-11-14T13:26:48.509Z,6.30
2022-11-14T13:29:41.171Z,6.40
2022-11-14T13:32:12.162Z,6.30
2022-11-14T13:34:49.308Z,6.30
2022-11-14T13:37:50.222Z,6.40
2022-11-14T13:41:03.497Z,6.40
2022-11-14T13:43:52.829Z,6.40
2022-11-14T13:47:02.884Z,6.40
2022-11-14T13:50:10.580Z,6.50
2022-11-14T13:52:45.482Z,6.60
2022-11-14T13:55:49.477Z,6.50
2022-11-14T13:58:42.408Z,6.50
2022-11-14T14:01:33.895Z,6.50
2022-11-14T14:04:23.624Z,6.40
2022-11-14T14:07:36.542Z,6.40
2022-11-14T14:10:41.171Z,6.50
2022-11-14T14:13:31.834Z,6.50
2022-11-14T14:16:18.141Z,6.50
2022-11-14T14:19:06.546Z,6.60
2022-11-14T14:21:54.039Z,6.50
2022-11-14T14:24:53.220Z,6.60
2022-11-14T14:27:55.764Z,6.60
2022-11-14T14:30:22.725Z,6.70
2022-11-14T14:33:07.727Z,6.70
2022-11-14T14:35:41.880Z,6.70
2022-11-14T14:38:23.317Z,6.80
2022-11-14T14:40:50.341Z,6.80
2022-11-14T14:43:34.400Z,6.80
2022-11-14T14:46:02.223Z,6.80
2022-11-14T14:48:34.982Z,6.90
2022-11-14T14:51:11.181Z,6.90
2022-11-14T14:53:38.030Z,6.90
2022-11-14T14:56:21.234Z,7.00
2022-11-14T14:58:48.188Z,7.00
2022-11-14T15:01:19.893Z,7.00
2022-11-14T15:03:58.056Z,7.00
2022-11-14T15:06:38.103Z,7.10
2022-11-14T15:09:39.792Z,7.10
2022-11-14T15:12:07.180Z,7.20
2022-11-14T15:14:38.473Z,7.20
2022-11-14T15:17:06.166Z,7.20
2022-11-14T15:19:41.758Z,7.10
2022-11-14T15:22:20.947Z,7.20
2022-11-14T15:25:11.745Z,7.20
2022-11-14T15:27:49.900Z,7.30
2022-11-14T15:30:34.823Z,7.30
2022-11-14T15:33:04.830Z,7.30
2022-11-14T15:35:40.083Z,7.30
2022-11-14T15:38:43.122Z,7.30
2022-11-14T15:41:33.824Z,7.30
2022-11-14T15:44:03.755Z,7.30
2022-11-14T15:46:46.880Z,7.30
2022-11-14T15:49:27.394Z,7.30
2022-11-14T15:51:55.739Z,7.30
2022-11-14T15:54:31.982Z,7.30
2022-11-14T15:57:12.448Z,7.40
2022-11-14T15:59:39.287Z,7.40
2022-11-14T16:02:28.230Z,7.40
2022-11-14T16:04:57.372Z,7.50
2022-11-14T16:07:24.389Z,7.50
2022-11-14T16:09:51.573Z,7.50
2022-11-14T16:12:18.366Z,7.50
2022-11-14T16:14:45.190Z,7.50
2022-11-14T16:17:17.548Z,7.50
2022-11-14T16:19:44.602Z,7.60
2022-11-14T16:22:17.723Z,7.60
2022-11-14T16:24:44.712Z,7.60
2022-11-14T16:27:11.477Z,7.60
2022-11-14T16:29:38.262Z,7.60
2022-11-14T16:32:05.158Z,7.60
2022-11-14T16:34:31.884Z,7.60
2022-11-14T16:37:01.565Z,7.60
2022-11-14T16:39:29.249Z,7.60
2022-11-14T16:42:05.263Z,7.70
2022-11-14T16:44:37.272Z,7.70
2022-11-14T16:47:07.756Z,7.70
2022-11-14T16:49:34.522Z,7.70
2022-11-14T16:52:06.908Z,7.70
2022-11-14T16:54:33.711Z,7.70
2022-11-14T16:57:00.419Z,7.80
2022-11-14T16:59:27.224Z,7.80
2022-11-14T17:01:53.978Z,7.80
2022-11-14T17:04:20.774Z,7.70
2022-11-14T17:06:47.564Z,7.80
2022-11-14T17:09:14.647Z,7.80
2022-11-14T17:11:41.497Z,7.80
2022-11-14T17:14:08.239Z,7.80
2022-11-14T17:16:34.964Z,7.80
2022-11-14T17:19:01.884Z,7.80
2022-11-14T17:21:28.701Z,7.80
2022-11-14T17:24:03.839Z,7.80
2022-11-14T17:26:30.636Z,7.80
2022-11-14T17:28:57.921Z,7.90
2022-11-14T17:31:24.677Z,7.90
2022-11-14T17:33:57.947Z,7.90
2022-11-14T17:36:28.176Z,7.90
2022-11-14T17:38:56.863Z,7.90
2022-11-14T17:41:24.587Z,7.90
2022-11-14T17:44:01.864Z,7.90
2022-11-14T17:46:29.999Z,7.90
2022-11-14T17:48:58.892Z,7.90
2022-11-14T17:51:25.770Z,8.00
2022-11-14T17:53:52.889Z,8.00
2022-11-14T17:56:25.388Z,8.00
2022-11-14T17:58:53.712Z,8.00
2022-11-14T18:01:24.805Z,8.00
2022-11-14T18:03:51.769Z,8.10
2022-11-14T18:06:21.017Z,8.10
2022-11-14T18:08:48.304Z,8.10
2022-11-14T18:11:17.158Z,8.10
2022-11-14T18:13:44.401Z,8.10
2022-11-14T18:16:19.995Z,8.10
2022-11-14T18:18:46.945Z,8.10
2022-11-14T18:21:20.964Z,8.10
2022-11-14T18:23:53.863Z,8.20
2022-11-14T18:26:27.336Z,8.20
2022-11-14T18:28:59.340Z,8.20
2022-11-14T18:31:26.229Z,8.20
2022-11-14T18:33:53.817Z,8.20
2022-11-14T18:36:20.607Z,8.20
2022-11-14T18:38:47.611Z,8.10
2022-11-14T18:41:20.868Z,8.10
2022-11-14T18:43:48.633Z,8.10
2022-11-14T18:46:24.144Z,8.10
2022-11-14T18:48:57.296Z,8.10
2022-11-14T18:51:28.684Z,8.10
2022-11-14T18:53:59.274Z,8.10
2022-11-14T18:56:26.804Z,8.00
2022-11-14T18:58:57.472Z,8.00
2022-11-14T19:01:29.283Z,8.00
2022-11-14T19:03:59.745Z,7.90
2022-11-14T19:06:27.533Z,7.80
2022-11-14T19:09:10.863Z,7.80
2022-11-14T19:11:57.559Z,7.70
2022-11-14T19:14:24.528Z,7.60
2022-11-14T19:16:51.390Z,7.40
2022-11-14T19:19:18.181Z,7.30
2022-11-14T19:21:48.332Z,7.20
2022-11-14T19:24:15.040Z,7.00
2022-11-14T19:26:41.805Z,7.00
2022-11-14T19:29:14.891Z,6.90
2022-11-14T19:31:43.095Z,6.80
2022-11-14T19:34:10.158Z,6.80
2022-11-14T19:36:58.881Z,6.80
2022-11-14T19:39:24.367Z,6.80
2022-11-14T19:41:51.328Z,6.90
2022-11-14T19:44:18.094Z,6.90
2022-11-14T19:46:47.846Z,7.00
2022-11-14T19:49:15.393Z,7.00
2022-11-14T19:51:42.392Z,7.10
2022-11-14T19:54:10.605Z,7.10
2022-11-14T19:56:37.924Z,7.10
2022-11-14T19:59:09.634Z,7.10
2022-11-14T20:01:41.995Z,7.20
2022-11-14T20:04:13.141Z,7.20
2022-11-14T20:06:41.574Z,7.30
2022-11-14T20:09:10.757Z,7.30
2022-11-14T20:11:38.391Z,7.40
2022-11-14T20:14:06.639Z,7.40
2022-11-14T20:16:36.842Z,7.50
2022-11-14T20:19:03.889Z,7.50
2022-11-14T20:21:33.907Z,7.60
2022-11-14T20:24:01.048Z,7.60
2022-11-14T20:26:28.008Z,7.70
2022-11-14T20:28:55.027Z,7.70
2022-11-14T20:31:27.190Z,7.80
2022-11-14T20:33:55.547Z,7.80
2022-11-14T20:36:26.099Z,7.90
2022-11-14T20:38:53.746Z,7.90
2022-11-14T20:41:21.723Z,7.90
2022-11-14T20:43:48.819Z,8.00
2022-11-14T20:46:19.243Z,8.10
2022-11-14T20:48:47.253Z,8.10
2022-11-14T20:51:21.153Z,8.10
2022-11-14T20:53:49.972Z,8.20
2022-11-14T20:56:17.863Z,8.20
2022-11-14T20:58:47.300Z,8.20
2022-11-14T21:01:15.963Z,8.20
2022-11-14T21:03:42.990Z,8.30
2022-11-14T21:06:13.019Z,8.40
2022-11-14T21:08:40.603Z,8.40
2022-11-14T21:11:12.875Z,8.40
2022-11-14T21:13:56.009Z,8.40
2022-11-14T21:16:36.599Z,8.50
2022-11-14T21:19:06.275Z,8.50
2022-11-14T21:21:38.548Z,8.50
2022-11-14T21:24:06.488Z,8.60
2022-11-14T21:26:38.586Z,8.60
2022-11-14T21:29:10.230Z,8.70
2022-11-14T21:31:45.725Z,8.70
2022-11-14T21:34:16.657Z,8.70
2022-11-14T21:36:46.076Z,8.70
2022-11-14T21:39:15.824Z,8.70
2022-11-14T21:41:44.573Z,8.70
2022-11-14T21:44:15.775Z,8.70
2022-11-14T21:46:45.327Z,8.60
2022-11-14T21:49:12.057Z,8.70
2022-11-14T21:51:38.819Z,8.60
2022-11-14T21:54:06.373Z,8.60
2022-11-14T21:56:36.885Z,8.50
2022-11-14T21:59:13.093Z,8.50
2022-11-14T22:02:01.510Z,8.50
2022-11-14T22:04:29.226Z,8.40
2022-11-14T22:06:56.372Z,8.50
2022-11-14T22:09:23.434Z,8.30
2022-11-14T22:11:50.234Z,8.40
2022-11-14T22:14:16.972Z,8.50
2022-11-14T22:16:44.408Z,8.50
2022-11-14T22:19:11.173Z,8.50
2022-11-14T22:21:38.428Z,8.60
2022-11-14T22:24:05.799Z,8.70
2022-11-14T22:26:35.211Z,8.70
2022-11-14T22:29:01.995Z,8.80
2022-11-14T22:31:28.768Z,8.80
2022-11-14T22:33:58.162Z,8.80
2022-11-14T22:36:27.404Z,8.70
2022-11-14T22:38:57.026Z,8.70
2022-11-14T22:41:32.619Z,8.70
2022-11-14T22:44:01.190Z,8.70
2022-11-14T22:46:28.810Z,8.80
2022-11-14T22:48:55.744Z,8.90
2022-11-14T22:51:26.237Z,8.90
2022-11-14T22:53:56.271Z,9.00
2022-11-14T22:56:27.652Z,9.00
2022-11-14T22:58:55.079Z,9.00
2022-11-14T23:01:31.348Z,9.00
2022-11-14T23:04:04.141Z,9.10
2022-11-14T23:06:33.903Z,9.10
2022-11-14T23:09:02.754Z,9.10
2022-11-14T23:11:32.452Z,9.10
2022-11-14T23:14:01.071Z,9.10
2022-11-14T23:16:31.363Z,9.10
2022-11-14T23:19:02.872Z,9.30
2022-11-14T23:21:36.164Z,9.10
2022-11-14T23:24:08.578Z,9.10
2022-11-14T23:26:35.291Z,9.10
2022-11-14T23:29:02.124Z,9.10
2022-11-14T23:31:28.889Z,9.10
2022-11-14T23:33:58.046Z,9.10
2022-11-14T23:36:25.070Z,9.10
2022-11-14T23:38:53.697Z,9.30
2022-11-14T23:41:24.573Z,9.10
2022-11-14T23:43:51.439Z,9.20
2022-11-14T23:46:18.272Z,9.20
2022-11-14T23:48:44.990Z,9.20
2022-11-14T23:51:13.490Z,9.30
2022-11-14T23:53:41.123Z,9.40
2022-11-14T23:56:13.469Z,9.40
2022-11-14T23:58:41.544Z,9.50
